Cottonville, North Carolina
Current Conditions -  °F | °C
As of 4:55 PM on Tuesday 25 Nov 2014 (Local Time) from KVUJ Reporting Station
Overcast Overcast  
Wind Chill: 56°   Ceiling: 11000
Heat Index: 56°   Visibility: 10mi
Dew Point: 45°   Wind: 3mph
Humidity: 66%   Direction: 60°ENE
Pressure: 30.08"   Gusts: NA
Location:  35.2152°N, 80.1663°W
Report Text: KVUJ 252155Z AUTO 06003KT 10SM OVC110 13/07 A3008 RMK AO2 T01340071
Loading
Personal Weather Stations






























Interactive Weather Map New forecast layout! Learn more

10-Day Weather Forecast

Advertisements
Track Severe Weather on mobile